sensor_id;sensor_type;location;lat;lon;timestamp;pressure;altitude;pressure_sealevel;temperature;humidity
35676;BME280;21790;42.668;23.298;2023-09-08T00:02:11;95195.88;;;24.06;47.49
35676;BME280;21790;42.668;23.298;2023-09-08T00:04:37;95197.59;;;23.96;47.71
35676;BME280;21790;42.668;23.298;2023-09-08T00:07:02;95207.84;;;24.12;47.41
35676;BME280;21790;42.668;23.298;2023-09-08T00:09:29;95207.31;;;23.82;48.16
35676;BME280;21790;42.668;23.298;2023-09-08T00:11:54;95195.88;;;23.74;48.00
35676;BME280;21790;42.668;23.298;2023-09-08T00:14:20;95196.16;;;23.90;47.57
35676;BME280;21790;42.668;23.298;2023-09-08T00:16:46;95202.28;;;23.94;47.24
35676;BME280;21790;42.668;23.298;2023-09-08T00:19:11;95189.94;;;23.78;46.51
35676;BME280;21790;42.668;23.298;2023-09-08T00:21:37;95206.38;;;23.61;45.90
35676;BME280;21790;42.668;23.298;2023-09-08T00:24:04;95189.22;;;23.91;45.47
35676;BME280;21790;42.668;23.298;2023-09-08T00:26:30;95183.63;;;24.17;44.82
35676;BME280;21790;42.668;23.298;2023-09-08T00:28:55;95185.78;;;23.98;44.42
35676;BME280;21790;42.668;23.298;2023-09-08T00:31:21;95182.91;;;23.85;44.62
35676;BME280;21790;42.668;23.298;2023-09-08T00:33:46;95183.81;;;23.93;44.27
35676;BME280;21790;42.668;23.298;2023-09-08T00:36:12;95188.53;;;23.85;44.32
35676;BME280;21790;42.668;23.298;2023-09-08T00:38:37;95187.88;;;24.10;43.33
35676;BME280;21790;42.668;23.298;2023-09-08T00:41:05;95186.19;;;23.89;43.77
35676;BME280;21790;42.668;23.298;2023-09-08T00:43:30;95176.25;;;24.14;43.44
35676;BME280;21790;42.668;23.298;2023-09-08T00:45:56;95180.34;;;24.45;42.46
35676;BME280;21790;42.668;23.298;2023-09-08T00:48:25;95188.25;;;24.33;42.50
35676;BME280;21790;42.668;23.298;2023-09-08T00:50:50;95178.06;;;24.56;42.33
35676;BME280;21790;42.668;23.298;2023-09-08T00:53:16;95180.25;;;24.64;41.86
35676;BME280;21790;42.668;23.298;2023-09-08T00:55:43;95169.59;;;24.70;41.89
35676;BME280;21790;42.668;23.298;2023-09-08T00:58:10;95170.69;;;24.67;42.18
35676;BME280;21790;42.668;23.298;2023-09-08T01:00:36;95171.78;;;24.64;42.02
35676;BME280;21790;42.668;23.298;2023-09-08T01:03:02;95176.25;;;24.59;42.35
35676;BME280;21790;42.668;23.298;2023-09-08T01:05:28;95168.16;;;24.50;42.13
35676;BME280;21790;42.668;23.298;2023-09-08T01:07:53;95176.78;;;24.57;42.47
35676;BME280;21790;42.668;23.298;2023-09-08T01:10:21;95175.69;;;24.47;42.25
35676;BME280;21790;42.668;23.298;2023-09-08T01:12:46;95170.56;;;24.33;42.46
35676;BME280;21790;42.668;23.298;2023-09-08T01:15:12;95172.44;;;24.43;42.24
35676;BME280;21790;42.668;23.298;2023-09-08T01:17:37;95177.63;;;24.79;41.64
35676;BME280;21790;42.668;23.298;2023-09-08T01:20:14;95170.69;;;24.80;41.43
35676;BME280;21790;42.668;23.298;2023-09-08T01:23:01;95175.13;;;24.62;41.87
35676;BME280;21790;42.668;23.298;2023-09-08T01:25:29;95175.91;;;24.63;41.89
35676;BME280;21790;42.668;23.298;2023-09-08T01:27:58;95162.88;;;24.59;41.85
35676;BME280;21790;42.668;23.298;2023-09-08T01:30:28;95170.25;;;24.89;41.57
35676;BME280;21790;42.668;23.298;2023-09-08T01:32:55;95174.94;;;24.86;41.35
35676;BME280;21790;42.668;23.298;2023-09-08T01:35:21;95173.31;;;24.91;41.41
35676;BME280;21790;42.668;23.298;2023-09-08T01:37:48;95168.75;;;24.88;41.60
35676;BME280;21790;42.668;23.298;2023-09-08T01:40:14;95169.81;;;24.58;42.78
35676;BME280;21790;42.668;23.298;2023-09-08T01:42:40;95162.66;;;24.57;42.83
35676;BME280;21790;42.668;23.298;2023-09-08T01:45:07;95157.63;;;24.50;42.82
35676;BME280;21790;42.668;23.298;2023-09-08T01:47:33;95172.06;;;24.34;43.34
35676;BME280;21790;42.668;23.298;2023-09-08T01:49:59;95159.91;;;24.39;43.14
35676;BME280;21790;42.668;23.298;2023-09-08T01:52:25;95157.53;;;24.56;43.11
35676;BME280;21790;42.668;23.298;2023-09-08T01:54:51;95159.47;;;24.61;42.90
35676;BME280;21790;42.668;23.298;2023-09-08T01:57:17;95161.53;;;24.60;43.10
35676;BME280;21790;42.668;23.298;2023-09-08T01:59:42;95166.75;;;24.56;43.23
35676;BME280;21790;42.668;23.298;2023-09-08T02:02:10;95165.91;;;24.48;43.41
35676;BME280;21790;42.668;23.298;2023-09-08T02:04:36;95162.22;;;24.53;43.57
35676;BME280;21790;42.668;23.298;2023-09-08T02:07:01;95158.41;;;24.51;43.86
35676;BME280;21790;42.668;23.298;2023-09-08T02:09:36;95156.09;;;24.49;44.09
35676;BME280;21790;42.668;23.298;2023-09-08T02:12:03;95159.38;;;24.40;44.11
35676;BME280;21790;42.668;23.298;2023-09-08T02:14:29;95171.44;;;24.41;44.39
35676;BME280;21790;42.668;23.298;2023-09-08T02:16:55;95155.25;;;24.41;44.51
35676;BME280;21790;42.668;23.298;2023-09-08T02:19:21;95154.59;;;24.48;44.19
35676;BME280;21790;42.668;23.298;2023-09-08T02:21:47;95153.16;;;24.29;44.73
35676;BME280;21790;42.668;23.298;2023-09-08T02:24:12;95147.94;;;24.20;45.29
35676;BME280;21790;42.668;23.298;2023-09-08T02:26:38;95147.84;;;24.25;45.28
35676;BME280;21790;42.668;23.298;2023-09-08T02:29:04;95144.38;;;24.32;45.37
35676;BME280;21790;42.668;23.298;2023-09-08T02:31:30;95144.34;;;24.19;45.75
35676;BME280;21790;42.668;23.298;2023-09-08T02:33:56;95152.56;;;24.17;45.88
35676;BME280;21790;42.668;23.298;2023-09-08T02:36:21;95145.53;;;24.10;46.13
35676;BME280;21790;42.668;23.298;2023-09-08T02:38:54;95123.28;;;24.20;45.67
35676;BME280;21790;42.668;23.298;2023-09-08T02:41:20;95134.59;;;24.20;46.05
35676;BME280;21790;42.668;23.298;2023-09-08T02:43:46;95145.44;;;24.29;46.01
35676;BME280;21790;42.668;23.298;2023-09-08T02:46:11;95135.97;;;24.13;46.53
35676;BME280;21790;42.668;23.298;2023-09-08T02:48:38;95141.75;;;24.21;46.78
35676;BME280;21790;42.668;23.298;2023-09-08T02:51:03;95143.06;;;24.20;46.84
35676;BME280;21790;42.668;23.298;2023-09-08T02:53:29;95139.38;;;24.25;46.42
35676;BME280;21790;42.668;23.298;2023-09-08T02:55:55;95141.56;;;24.32;46.62
35676;BME280;21790;42.668;23.298;2023-09-08T02:58:21;95142.97;;;24.39;46.54
35676;BME280;21790;42.668;23.298;2023-09-08T03:00:46;95144.50;;;24.27;47.04
35676;BME280;21790;42.668;23.298;2023-09-08T03:03:12;95136.31;;;24.23;47.29
35676;BME280;21790;42.668;23.298;2023-09-08T03:05:37;95137.19;;;24.18;47.52
35676;BME280;21790;42.668;23.298;2023-09-08T03:08:03;95147.41;;;24.21;47.68
35676;BME280;21790;42.668;23.298;2023-09-08T03:10:30;95144.59;;;24.21;47.64
35676;BME280;21790;42.668;23.298;2023-09-08T03:12:59;95144.97;;;24.12;47.65
35676;BME280;21790;42.668;23.298;2023-09-08T03:15:25;95137.25;;;24.12;47.77
35676;BME280;21790;42.668;23.298;2023-09-08T03:17:57;95135.09;;;24.05;48.19
35676;BME280;21790;42.668;23.298;2023-09-08T03:20:25;95126.00;;;23.81;48.85
35676;BME280;21790;42.668;23.298;2023-09-08T03:22:54;95132.75;;;23.77;49.07
35676;BME280;21790;42.668;23.298;2023-09-08T03:25:20;95131.66;;;23.81;48.73
35676;BME280;21790;42.668;23.298;2023-09-08T03:27:45;95133.19;;;23.95;48.47
35676;BME280;21790;42.668;23.298;2023-09-08T03:30:11;95144.25;;;23.80;49.16
35676;BME280;21790;42.668;23.298;2023-09-08T03:32:37;95145.44;;;23.84;49.09
35676;BME280;21790;42.668;23.298;2023-09-08T03:35:04;95149.22;;;23.73;49.33
35676;BME280;21790;42.668;23.298;2023-09-08T03:37:33;95145.84;;;23.75;49.30
35676;BME280;21790;42.668;23.298;2023-09-08T03:39:59;95145.66;;;23.86;49.06
35676;BME280;21790;42.668;23.298;2023-09-08T03:42:24;95153.25;;;23.78;49.59
35676;BME280;21790;42.668;23.298;2023-09-08T03:44:50;95152.44;;;23.64;49.75
35676;BME280;21790;42.668;23.298;2023-09-08T03:47:15;95149.25;;;23.55;49.98
35676;BME280;21790;42.668;23.298;2023-09-08T03:49:41;95155.28;;;23.46;50.32
35676;BME280;21790;42.668;23.298;2023-09-08T03:52:06;95147.88;;;23.24;50.90
35676;BME280;21790;42.668;23.298;2023-09-08T03:54:32;95151.63;;;23.32;50.72
35676;BME280;21790;42.668;23.298;2023-09-08T03:56:58;95132.66;;;23.14;51.09
35676;BME280;21790;42.668;23.298;2023-09-08T03:59:23;95155.69;;;23.18;51.43
35676;BME280;21790;42.668;23.298;2023-09-08T04:01:49;95152.22;;;23.25;51.05
35676;BME280;21790;42.668;23.298;2023-09-08T04:04:14;95152.47;;;23.27;50.94
35676;BME280;21790;42.668;23.298;2023-09-08T04:06:41;95156.81;;;23.28;50.75
35676;BME280;21790;42.668;23.298;2023-09-08T04:09:06;95161.09;;;23.34;50.46
35676;BME280;21790;42.668;23.298;2023-09-08T04:11:32;95158.56;;;23.31;50.27
35676;BME280;21790;42.668;23.298;2023-09-08T04:13:58;95159.47;;;23.20;50.31
35676;BME280;21790;42.668;23.298;2023-09-08T04:16:23;95158.69;;;22.82;51.17
35676;BME280;21790;42.668;23.298;2023-09-08T04:18:49;95151.63;;;22.94;50.87
35676;BME280;21790;42.668;23.298;2023-09-08T04:21:14;95148.38;;;22.90;51.19
35676;BME280;21790;42.668;23.298;2023-09-08T04:23:40;95153.72;;;23.13;50.43
35676;BME280;21790;42.668;23.298;2023-09-08T04:26:06;95159.03;;;23.16;50.46
35676;BME280;21790;42.668;23.298;2023-09-08T04:28:31;95155.91;;;23.20;50.33
35676;BME280;21790;42.668;23.298;2023-09-08T04:30:56;95162.97;;;22.89;51.38
35676;BME280;21790;42.668;23.298;2023-09-08T04:33:23;95157.47;;;22.97;51.46
35676;BME280;21790;42.668;23.298;2023-09-08T04:35:49;95162.22;;;22.88;51.70
35676;BME280;21790;42.668;23.298;2023-09-08T04:38:14;95163.44;;;23.12;51.27
35676;BME280;21790;42.668;23.298;2023-09-08T04:40:40;95165.03;;;23.26;51.15
35676;BME280;21790;42.668;23.298;2023-09-08T04:43:07;95162.47;;;23.28;50.95
35676;BME280;21790;42.668;23.298;2023-09-08T04:45:32;95167.72;;;23.56;50.34
35676;BME280;21790;42.668;23.298;2023-09-08T04:47:58;95167.22;;;23.70;49.98
35676;BME280;21790;42.668;23.298;2023-09-08T04:50:23;95166.66;;;23.40;50.77
35676;BME280;21790;42.668;23.298;2023-09-08T04:52:49;95166.28;;;23.49;50.78
35676;BME280;21790;42.668;23.298;2023-09-08T04:55:14;95160.28;;;23.71;50.23
35676;BME280;21790;42.668;23.298;2023-09-08T04:57:40;95161.34;;;24.00;49.68
35676;BME280;21790;42.668;23.298;2023-09-08T05:00:06;95170.59;;;24.14;49.25
35676;BME280;21790;42.668;23.298;2023-09-08T05:02:32;95171.84;;;24.18;48.79
35676;BME280;21790;42.668;23.298;2023-09-08T05:05:00;95162.31;;;24.22;48.71
35676;BME280;21790;42.668;23.298;2023-09-08T05:07:25;95164.69;;;24.31;48.66
35676;BME280;21790;42.668;23.298;2023-09-08T05:09:51;95171.22;;;24.52;48.23
35676;BME280;21790;42.668;23.298;2023-09-08T05:12:16;95171.78;;;24.64;47.99
35676;BME280;21790;42.668;23.298;2023-09-08T05:14:42;95161.22;;;24.64;47.83
35676;BME280;21790;42.668;23.298;2023-09-08T05:17:07;95171.44;;;24.67;47.53
35676;BME280;21790;42.668;23.298;2023-09-08T05:19:33;95168.97;;;24.90;46.72
35676;BME280;21790;42.668;23.298;2023-09-08T05:21:58;95178.81;;;24.83;47.10
35676;BME280;21790;42.668;23.298;2023-09-08T05:24:24;95171.97;;;25.05;46.57
35676;BME280;21790;42.668;23.298;2023-09-08T05:26:51;95170.38;;;24.96;46.42
35676;BME280;21790;42.668;23.298;2023-09-08T05:29:17;95175.50;;;24.98;46.18
35676;BME280;21790;42.668;23.298;2023-09-08T05:31:42;95174.50;;;24.95;45.45
35676;BME280;21790;42.668;23.298;2023-09-08T05:34:08;95164.38;;;25.13;45.24
35676;BME280;21790;42.668;23.298;2023-09-08T05:36:34;95178.28;;;25.24;44.86
35676;BME280;21790;42.668;23.298;2023-09-08T05:39:02;95175.44;;;25.24;44.66
35676;BME280;21790;42.668;23.298;2023-09-08T05:41:28;95175.06;;;25.41;44.74
35676;BME280;21790;42.668;23.298;2023-09-08T05:43:53;95179.97;;;25.40;44.29
35676;BME280;21790;42.668;23.298;2023-09-08T05:46:19;95173.63;;;25.14;44.57
35676;BME280;21790;42.668;23.298;2023-09-08T05:48:45;95187.41;;;25.30;43.78
35676;BME280;21790;42.668;23.298;2023-09-08T05:51:10;95185.69;;;25.14;44.24
35676;BME280;21790;42.668;23.298;2023-09-08T05:53:36;95182.44;;;24.97;43.52
35676;BME280;21790;42.668;23.298;2023-09-08T05:56:04;95177.75;;;25.13;43.57
35676;BME280;21790;42.668;23.298;2023-09-08T05:58:30;95189.72;;;25.06;43.09
35676;BME280;21790;42.668;23.298;2023-09-08T06:00:55;95188.91;;;25.31;42.31
35676;BME280;21790;42.668;23.298;2023-09-08T06:03:21;95187.81;;;25.34;42.23
35676;BME280;21790;42.668;23.298;2023-09-08T06:05:47;95191.94;;;25.47;41.81
35676;BME280;21790;42.668;23.298;2023-09-08T06:08:12;95183.69;;;25.69;41.22
35676;BME280;21790;42.668;23.298;2023-09-08T06:10:38;95192.59;;;25.39;41.21
35676;BME280;21790;42.668;23.298;2023-09-08T06:13:04;95192.56;;;25.53;41.40
35676;BME280;21790;42.668;23.298;2023-09-08T06:15:30;95186.94;;;25.26;41.07
35676;BME280;21790;42.668;23.298;2023-09-08T06:17:55;95194.19;;;25.14;41.67
35676;BME280;21790;42.668;23.298;2023-09-08T06:20:21;95188.34;;;25.46;41.32
35676;BME280;21790;42.668;23.298;2023-09-08T06:22:47;95189.78;;;25.26;41.19
35676;BME280;21790;42.668;23.298;2023-09-08T06:25:13;95181.44;;;25.68;40.30
35676;BME280;21790;42.668;23.298;2023-09-08T06:27:38;95185.53;;;25.80;39.30
35676;BME280;21790;42.668;23.298;2023-09-08T06:30:05;95190.50;;;25.87;39.27
35676;BME280;21790;42.668;23.298;2023-09-08T06:32:30;95192.59;;;26.07;38.71
35676;BME280;21790;42.668;23.298;2023-09-08T06:34:56;95193.38;;;26.29;38.66
35676;BME280;21790;42.668;23.298;2023-09-08T06:37:21;95205.59;;;26.23;38.31
35676;BME280;21790;42.668;23.298;2023-09-08T06:39:47;95204.69;;;26.29;37.78
35676;BME280;21790;42.668;23.298;2023-09-08T06:42:12;95211.38;;;26.18;37.96
35676;BME280;21790;42.668;23.298;2023-09-08T06:44:38;95194.03;;;26.21;37.29
35676;BME280;21790;42.668;23.298;2023-09-08T06:47:03;95198.75;;;26.40;36.72
35676;BME280;21790;42.668;23.298;2023-09-08T06:49:32;95206.06;;;26.56;36.48
35676;BME280;21790;42.668;23.298;2023-09-08T06:51:57;95211.81;;;26.71;36.16
35676;BME280;21790;42.668;23.298;2023-09-08T06:54:23;95212.47;;;26.56;35.74
35676;BME280;21790;42.668;23.298;2023-09-08T06:56:48;95207.53;;;26.57;35.56
35676;BME280;21790;42.668;23.298;2023-09-08T06:59:14;95203.00;;;26.54;35.60
35676;BME280;21790;42.668;23.298;2023-09-08T07:01:39;95214.91;;;26.81;35.26
35676;BME280;21790;42.668;23.298;2023-09-08T07:04:05;95216.16;;;26.44;35.32
35676;BME280;21790;42.668;23.298;2023-09-08T07:06:32;95206.34;;;26.94;34.76
35676;BME280;21790;42.668;23.298;2023-09-08T07:08:59;95211.72;;;27.13;34.39
35676;BME280;21790;42.668;23.298;2023-09-08T07:11:24;95209.88;;;27.23;34.27
35676;BME280;21790;42.668;23.298;2023-09-08T07:13:50;95206.59;;;27.47;34.04
35676;BME280;21790;42.668;23.298;2023-09-08T07:16:15;95210.84;;;27.25;34.33
35676;BME280;21790;42.668;23.298;2023-09-08T07:18:42;95205.75;;;26.95;34.11
35676;BME280;21790;42.668;23.298;2023-09-08T07:21:08;95205.06;;;27.02;33.90
35676;BME280;21790;42.668;23.298;2023-09-08T07:23:34;95200.72;;;27.45;33.94
35676;BME280;21790;42.668;23.298;2023-09-08T07:26:01;95208.06;;;27.76;33.86
35676;BME280;21790;42.668;23.298;2023-09-08T07:28:27;95206.75;;;27.85;32.89
35676;BME280;21790;42.668;23.298;2023-09-08T07:30:52;95204.47;;;27.40;33.07
35676;BME280;21790;42.668;23.298;2023-09-08T07:33:18;95201.47;;;27.38;33.42
35676;BME280;21790;42.668;23.298;2023-09-08T07:35:44;95206.72;;;27.77;33.00
35676;BME280;21790;42.668;23.298;2023-09-08T07:38:10;95197.38;;;27.62;33.19
35676;BME280;21790;42.668;23.298;2023-09-08T07:40:35;95199.56;;;27.92;33.18
35676;BME280;21790;42.668;23.298;2023-09-08T07:43:01;95203.03;;;28.13;32.75
35676;BME280;21790;42.668;23.298;2023-09-08T07:45:27;95190.38;;;28.37;32.73
35676;BME280;21790;42.668;23.298;2023-09-08T07:47:53;95191.66;;;28.43;32.12
35676;BME280;21790;42.668;23.298;2023-09-08T07:50:24;95192.03;;;28.17;32.38
35676;BME280;21790;42.668;23.298;2023-09-08T07:52:51;95212.47;;;28.08;32.52
35676;BME280;21790;42.668;23.298;2023-09-08T07:55:17;95194.81;;;27.86;32.73
35676;BME280;21790;42.668;23.298;2023-09-08T07:57:44;95193.56;;;28.18;32.33
35676;BME280;21790;42.668;23.298;2023-09-08T08:00:12;95189.03;;;28.53;32.32
35676;BME280;21790;42.668;23.298;2023-09-08T08:02:49;95187.69;;;28.61;31.78
35676;BME280;21790;42.668;23.298;2023-09-08T08:05:15;95192.59;;;28.53;31.88
35676;BME280;21790;42.668;23.298;2023-09-08T08:07:42;95183.31;;;28.68;31.46
35676;BME280;21790;42.668;23.298;2023-09-08T08:10:08;95187.88;;;28.79;31.35
35676;BME280;21790;42.668;23.298;2023-09-08T08:12:35;95180.09;;;28.87;31.34
35676;BME280;21790;42.668;23.298;2023-09-08T08:15:00;95193.94;;;28.83;31.10
35676;BME280;21790;42.668;23.298;2023-09-08T08:17:26;95177.63;;;28.76;30.80
35676;BME280;21790;42.668;23.298;2023-09-08T08:19:54;95184.47;;;28.57;31.83
35676;BME280;21790;42.668;23.298;2023-09-08T08:22:20;95178.00;;;28.87;32.19
35676;BME280;21790;42.668;23.298;2023-09-08T08:24:45;95185.88;;;29.19;31.07
35676;BME280;21790;42.668;23.298;2023-09-08T08:27:11;95177.22;;;28.94;30.45
35676;BME280;21790;42.668;23.298;2023-09-08T08:29:37;95178.75;;;28.95;30.87
35676;BME280;21790;42.668;23.298;2023-09-08T08:32:02;95187.13;;;28.86;30.90
35676;BME280;21790;42.668;23.298;2023-09-08T08:34:28;95186.53;;;28.87;31.27
35676;BME280;21790;42.668;23.298;2023-09-08T08:36:53;95187.13;;;28.63;31.04
35676;BME280;21790;42.668;23.298;2023-09-08T08:39:19;95180.69;;;28.47;31.51
35676;BME280;21790;42.668;23.298;2023-09-08T08:41:46;95166.09;;;28.74;30.89
35676;BME280;21790;42.668;23.298;2023-09-08T08:44:15;95167.59;;;28.82;30.70
35676;BME280;21790;42.668;23.298;2023-09-08T08:46:43;95165.47;;;28.07;32.33
35676;BME280;21790;42.668;23.298;2023-09-08T08:49:10;95160.97;;;28.34;31.90
35676;BME280;21790;42.668;23.298;2023-09-08T08:51:37;95167.97;;;28.56;31.57
35676;BME280;21790;42.668;23.298;2023-09-08T08:54:03;95166.09;;;28.74;31.40
35676;BME280;21790;42.668;23.298;2023-09-08T08:56:35;95167.97;;;28.33;31.35
35676;BME280;21790;42.668;23.298;2023-09-08T08:59:01;95164.38;;;28.17;31.49
35676;BME280;21790;42.668;23.298;2023-09-08T09:01:28;95173.09;;;28.35;31.12
35676;BME280;21790;42.668;23.298;2023-09-08T09:03:54;95162.50;;;28.35;30.51
35676;BME280;21790;42.668;23.298;2023-09-08T09:06:20;95165.13;;;28.48;31.08
35676;BME280;21790;42.668;23.298;2023-09-08T09:08:46;95167.06;;;27.49;31.86
35676;BME280;21790;42.668;23.298;2023-09-08T09:11:12;95164.44;;;27.51;32.13
35676;BME280;21790;42.668;23.298;2023-09-08T09:13:38;95151.44;;;27.86;31.89
35676;BME280;21790;42.668;23.298;2023-09-08T09:16:04;95165.09;;;28.03;31.61
35676;BME280;21790;42.668;23.298;2023-09-08T09:18:33;95171.13;;;27.76;31.95
35676;BME280;21790;42.668;23.298;2023-09-08T09:21:00;95168.78;;;27.52;32.11
35676;BME280;21790;42.668;23.298;2023-09-08T09:23:33;95159.78;;;27.76;31.92
35676;BME280;21790;42.668;23.298;2023-09-08T09:26:02;95161.47;;;27.79;31.63
35676;BME280;21790;42.668;23.298;2023-09-08T09:28:31;95157.13;;;27.94;31.82
35676;BME280;21790;42.668;23.298;2023-09-08T09:30:57;95159.22;;;27.27;32.25
35676;BME280;21790;42.668;23.298;2023-09-08T09:33:24;95154.00;;;27.02;32.71
35676;BME280;21790;42.668;23.298;2023-09-08T09:35:51;95158.53;;;27.49;31.81
35676;BME280;21790;42.668;23.298;2023-09-08T09:38:18;95149.31;;;27.13;32.59
35676;BME280;21790;42.668;23.298;2023-09-08T09:40:44;95156.59;;;27.44;32.47
35676;BME280;21790;42.668;23.298;2023-09-08T09:43:15;95169.09;;;27.41;32.44
35676;BME280;21790;42.668;23.298;2023-09-08T09:45:42;95158.84;;;27.81;31.62
35676;BME280;21790;42.668;23.298;2023-09-08T09:48:09;95141.44;;;28.08;31.80
35676;BME280;21790;42.668;23.298;2023-09-08T09:50:37;95149.59;;;28.26;31.28
35676;BME280;21790;42.668;23.298;2023-09-08T09:53:12;95146.56;;;28.40;31.17
35676;BME280;21790;42.668;23.298;2023-09-08T09:55:39;95142.78;;;28.22;31.78
35676;BME280;21790;42.668;23.298;2023-09-08T09:58:05;95146.91;;;28.66;31.44
35676;BME280;21790;42.668;23.298;2023-09-08T10:00:33;95151.13;;;28.58;30.96
35676;BME280;21790;42.668;23.298;2023-09-08T10:03:00;95132.69;;;28.66;31.25
35676;BME280;21790;42.668;23.298;2023-09-08T10:05:26;95139.72;;;28.73;31.30
35676;BME280;21790;42.668;23.298;2023-09-08T10:07:54;95135.56;;;28.74;30.91
35676;BME280;21790;42.668;23.298;2023-09-08T10:10:21;95134.78;;;28.66;31.12
35676;BME280;21790;42.668;23.298;2023-09-08T10:13:02;95129.13;;;28.58;31.75
35676;BME280;21790;42.668;23.298;2023-09-08T10:15:30;95124.53;;;28.70;31.43
35676;BME280;21790;42.668;23.298;2023-09-08T10:17:56;95120.00;;;28.60;31.34
35676;BME280;21790;42.668;23.298;2023-09-08T10:20:23;95128.53;;;28.67;31.74
35676;BME280;21790;42.668;23.298;2023-09-08T10:22:54;95130.63;;;28.67;31.79
35676;BME280;21790;42.668;23.298;2023-09-08T10:25:21;95115.81;;;28.68;31.69
35676;BME280;21790;42.668;23.298;2023-09-08T10:27:50;95117.91;;;28.60;32.25
35676;BME280;21790;42.668;23.298;2023-09-08T10:30:16;95126.09;;;28.26;31.80
35676;BME280;21790;42.668;23.298;2023-09-08T10:32:42;95118.88;;;28.63;31.24
35676;BME280;21790;42.668;23.298;2023-09-08T10:35:09;95110.91;;;28.61;31.50
35676;BME280;21790;42.668;23.298;2023-09-08T10:37:35;95106.19;;;28.56;32.31
35676;BME280;21790;42.668;23.298;2023-09-08T10:40:28;95117.00;;;28.50;31.50
35676;BME280;21790;42.668;23.298;2023-09-08T10:43:17;95121.00;;;28.47;32.65
35676;BME280;21790;42.668;23.298;2023-09-08T10:45:43;95112.09;;;28.36;32.82
35676;BME280;21790;42.668;23.298;2023-09-08T10:48:09;95112.06;;;28.58;32.70
35676;BME280;21790;42.668;23.298;2023-09-08T10:50:40;95117.16;;;28.60;32.60
35676;BME280;21790;42.668;23.298;2023-09-08T10:53:08;95111.47;;;28.75;32.72
35676;BME280;21790;42.668;23.298;2023-09-08T10:55:49;95114.44;;;29.00;31.73
35676;BME280;21790;42.668;23.298;2023-09-08T10:58:31;95114.78;;;29.04;31.81
35676;BME280;21790;42.668;23.298;2023-09-08T11:01:19;95113.28;;;29.03;31.63
35676;BME280;21790;42.668;23.298;2023-09-08T11:03:50;95104.38;;;28.99;31.87
35676;BME280;21790;42.668;23.298;2023-09-08T11:06:16;95116.66;;;29.09;31.99
35676;BME280;21790;42.668;23.298;2023-09-08T11:08:47;95115.75;;;28.99;31.59
35676;BME280;21790;42.668;23.298;2023-09-08T11:11:15;95101.13;;;29.02;31.60
35676;BME280;21790;42.668;23.298;2023-09-08T11:13:41;95100.19;;;29.00;31.88
35676;BME280;21790;42.668;23.298;2023-09-08T11:16:07;95103.06;;;28.92;32.00
35676;BME280;21790;42.668;23.298;2023-09-08T11:18:34;95102.16;;;28.82;32.35
35676;BME280;21790;42.668;23.298;2023-09-08T11:21:04;95096.47;;;28.82;32.01
35676;BME280;21790;42.668;23.298;2023-09-08T11:23:36;95097.25;;;28.75;32.46
35676;BME280;21790;42.668;23.298;2023-09-08T11:26:12;95094.94;;;28.89;32.41
35676;BME280;21790;42.668;23.298;2023-09-08T11:28:43;95082.97;;;28.90;32.10
35676;BME280;21790;42.668;23.298;2023-09-08T12:10:23;95064.31;;;29.12;31.67
35676;BME280;21790;42.668;23.298;2023-09-08T12:12:54;95061.06;;;29.16;31.59
35676;BME280;21790;42.668;23.298;2023-09-08T12:15:37;95064.13;;;29.10;32.12
35676;BME280;21790;42.668;23.298;2023-09-08T12:18:13;95072.22;;;28.74;32.12
35676;BME280;21790;42.668;23.298;2023-09-08T12:20:46;95057.34;;;28.98;31.66
35676;BME280;21790;42.668;23.298;2023-09-08T12:23:21;95041.56;;;29.04;31.36
35676;BME280;21790;42.668;23.298;2023-09-08T12:25:52;95053.63;;;29.20;31.42
35676;BME280;21790;42.668;23.298;2023-09-08T12:28:35;95056.75;;;28.99;31.66
35676;BME280;21790;42.668;23.298;2023-09-08T12:31:09;95035.75;;;28.87;31.75
35676;BME280;21790;42.668;23.298;2023-09-08T12:33:36;95046.34;;;28.94;31.96
35676;BME280;21790;42.668;23.298;2023-09-08T12:36:16;95044.81;;;29.01;31.65
35676;BME280;21790;42.668;23.298;2023-09-08T12:38:53;95038.50;;;29.10;31.04
35676;BME280;21790;42.668;23.298;2023-09-08T12:41:22;95031.28;;;28.61;31.46
35676;BME280;21790;42.668;23.298;2023-09-08T12:44:13;95004.66;;;28.89;31.01
35676;BME280;21790;42.668;23.298;2023-09-08T12:46:43;95026.88;;;28.83;31.37
35676;BME280;21790;42.668;23.298;2023-09-08T12:52:35;95036.56;;;28.65;31.74
35676;BME280;21790;42.668;23.298;2023-09-08T12:55:01;95027.81;;;28.86;31.48
35676;BME280;21790;42.668;23.298;2023-09-08T12:57:27;95034.19;;;29.01;31.61
35676;BME280;21790;42.668;23.298;2023-09-08T12:59:54;95024.06;;;29.08;31.49
35676;BME280;21790;42.668;23.298;2023-09-08T13:02:21;95032.28;;;29.04;31.87
35676;BME280;21790;42.668;23.298;2023-09-08T13:04:47;95025.78;;;29.11;31.49
35676;BME280;21790;42.668;23.298;2023-09-08T13:09:49;95002.66;;;29.07;31.11
35676;BME280;21790;42.668;23.298;2023-09-08T13:12:17;95009.06;;;29.15;31.27
35676;BME280;21790;42.668;23.298;2023-09-08T13:14:43;95024.03;;;29.23;31.11
35676;BME280;21790;42.668;23.298;2023-09-08T13:17:10;95009.78;;;29.23;31.00
35676;BME280;21790;42.668;23.298;2023-09-08T13:19:39;95013.19;;;28.89;30.85
35676;BME280;21790;42.668;23.298;2023-09-08T13:22:09;95012.28;;;28.71;30.88
35676;BME280;21790;42.668;23.298;2023-09-08T13:27:10;95016.09;;;28.66;30.97
35676;BME280;21790;42.668;23.298;2023-09-08T13:44:38;95039.97;;;28.79;31.15
35676;BME280;21790;42.668;23.298;2023-09-08T13:47:07;95010.84;;;28.48;31.35
35676;BME280;21790;42.668;23.298;2023-09-08T13:49:34;95001.03;;;28.26;31.79
35676;BME280;21790;42.668;23.298;2023-09-08T13:55:39;95004.38;;;28.62;30.61
35676;BME280;21790;42.668;23.298;2023-09-08T13:58:10;95021.59;;;28.64;31.01